Portada
METAR-TAF:

METAR-TAF

Aeroports :

Al-Kharj, Aràbia Saudita

latitud: 24-03-19N, longitud: 047-33-49E, altitud: 503 m

Observació

L'informe es va fer fa 50 minuts, a les 15:00 UTC
Vent 8 kt del Nord/Nord-Est
Temperatura 26°C
Humitat 23%
Pressió 1020 hPa
Visibilitat 10 km o més
sense núvols per sota de 1500 mi sense presència de cumulonimbus.

METAR: OEKJ 011500Z 03008KT CAVOK 26/03 Q1020

Hora: 18:50 (15:50 UTC)

Pronòstic

L'informe es va fer fa 4 hores i 50 minuts, a les 11:00 UTC
Pronòstic vàlid del 01 a les 12 UTC al 02 a les 18 UTC
Vent 10 kt del Sud
Visibilitat 10 km o més
sense núvols per sota de 1500 mi sense presència de cumulonimbus.
Evolucionant progressivament
l' 02 a les 10 UTC al 02 a les 12 UTC
Vent 10 kt del Est

TAF: OEKJ 011100Z 0112/0218 18010KT CAVOK BECMG 0210/0212 08010KT

Observacions i pronòstics meteorològics de més de 4000 aeroports (METAR i TAF).

Les estacions disponibles són els punts grocs i vermells al mapa.

Posi el ratolí al punt desitjat per veure el nom de l'estació.

Feu clic per veure les observacions i els pronòstics meteorològics.

Per canviar el mapa: feu clic els botons verds amb una creu de color negre per apropar; al botó verd amb un guió per allunyar la imatge; o en les fletxes verdes per a mapes adjacents.


METAR-TAF: